createdAt,value
2023-05-20T00:00:31.824Z,478.00
2023-05-20T00:01:31.768Z,479.00
2023-05-20T00:02:30.949Z,479.00
2023-05-20T00:03:31.988Z,477.00
2023-05-20T00:04:31.107Z,478.00
2023-05-20T00:05:31.234Z,477.00
2023-05-20T00:06:32.039Z,475.00
2023-05-20T00:07:32.109Z,473.00
2023-05-20T00:08:31.363Z,473.00
2023-05-20T00:09:31.141Z,472.00
2023-05-20T00:10:32.478Z,470.00
2023-05-20T00:11:31.346Z,471.00
2023-05-20T00:12:32.292Z,472.00
2023-05-20T00:13:31.511Z,471.00
2023-05-20T00:14:32.390Z,473.00
2023-05-20T00:15:31.468Z,472.00
2023-05-20T00:16:32.536Z,472.00
2023-05-20T00:17:32.588Z,474.00
2023-05-20T00:18:31.587Z,473.00
2023-05-20T00:19:31.664Z,474.00
2023-05-20T00:20:32.691Z,475.00
2023-05-20T00:21:32.754Z,476.00
2023-05-20T00:22:31.786Z,478.00
2023-05-20T00:23:31.864Z,477.00
2023-05-20T00:24:31.897Z,478.00
2023-05-20T00:25:33.241Z,479.00
2023-05-20T00:26:32.094Z,480.00
2023-05-20T00:27:33.045Z,481.00
2023-05-20T00:28:33.065Z,481.00
2023-05-20T00:29:32.099Z,481.00
2023-05-20T00:30:32.318Z,480.00
2023-05-20T00:31:33.439Z,478.00
2023-05-20T00:32:33.421Z,477.00
2023-05-20T00:33:33.366Z,476.00
2023-05-20T00:34:33.468Z,478.00
2023-05-20T00:35:33.566Z,478.00
2023-05-20T00:36:33.407Z,479.00
2023-05-20T00:37:33.570Z,477.00
2023-05-20T00:38:33.761Z,479.00
2023-05-20T00:39:33.735Z,480.00
2023-05-20T00:40:32.682Z,478.00
2023-05-20T00:41:33.669Z,478.00
2023-05-20T00:42:32.814Z,479.00
2023-05-20T00:43:32.742Z,481.00
2023-05-20T00:44:32.787Z,480.00
2023-05-20T00:45:33.024Z,481.00
2023-05-20T00:46:32.965Z,484.00
2023-05-20T00:47:33.938Z,483.00
2023-05-20T00:48:33.980Z,481.00
2023-05-20T00:49:33.076Z,481.00
2023-05-20T00:50:33.087Z,482.00
2023-05-20T00:51:34.129Z,483.00
2023-05-20T00:52:33.166Z,482.00
2023-05-20T00:53:34.218Z,481.00
2023-05-20T00:54:34.332Z,483.00
2023-05-20T00:55:33.472Z,484.00
2023-05-20T00:56:33.400Z,483.00
2023-05-20T00:57:33.433Z,485.00
2023-05-20T00:58:33.695Z,485.00
2023-05-20T00:59:34.604Z,483.00
2023-05-20T01:00:35.401Z,484.00
2023-05-20T01:01:33.844Z,483.00
2023-05-20T01:02:33.735Z,482.00
2023-05-20T01:03:34.035Z,481.00
2023-05-20T01:04:33.770Z,482.00
2023-05-20T01:05:35.225Z,481.00
2023-05-20T01:06:34.042Z,481.00
2023-05-20T01:07:34.895Z,482.00
2023-05-20T01:08:33.949Z,481.00
2023-05-20T01:09:34.159Z,481.00
2023-05-20T01:10:34.334Z,481.00
2023-05-20T01:11:34.243Z,481.00
2023-05-20T01:12:35.164Z,478.00
2023-05-20T01:13:35.200Z,477.00
2023-05-20T01:14:35.229Z,478.00
2023-05-20T01:15:35.479Z,477.00
2023-05-20T01:16:35.416Z,477.00
2023-05-20T01:17:35.559Z,482.00
2023-05-20T01:18:34.599Z,484.00
2023-05-20T01:19:35.589Z,482.00
2023-05-20T01:20:35.529Z,481.00
2023-05-20T01:21:34.545Z,481.00
2023-05-20T01:22:34.605Z,481.00
2023-05-20T01:23:34.889Z,482.00
2023-05-20T01:24:35.733Z,483.00
2023-05-20T01:25:34.958Z,482.00
2023-05-20T01:26:34.812Z,482.00
2023-05-20T01:27:35.879Z,483.00
2023-05-20T01:28:34.919Z,483.00
2023-05-20T01:29:35.089Z,484.00
2023-05-20T01:30:34.985Z,482.00
2023-05-20T01:31:35.242Z,483.00
2023-05-20T01:32:35.078Z,483.00
2023-05-20T01:33:35.087Z,485.00
2023-05-20T01:34:35.207Z,486.00
2023-05-20T01:35:36.354Z,487.00
2023-05-20T01:36:36.222Z,486.00
2023-05-20T01:37:35.414Z,485.00
2023-05-20T01:38:35.524Z,487.00
2023-05-20T01:39:36.606Z,490.00
2023-05-20T01:40:35.519Z,492.00
2023-05-20T01:41:36.424Z,492.00
2023-05-20T01:42:36.537Z,492.00
2023-05-20T01:43:36.558Z,490.00
2023-05-20T01:44:36.633Z,491.00
2023-05-20T01:45:37.022Z,491.00
2023-05-20T01:46:36.766Z,489.00
2023-05-20T01:47:37.045Z,487.00
2023-05-20T01:48:36.991Z,484.00
2023-05-20T01:49:36.958Z,486.00
2023-05-20T01:50:37.036Z,485.00
2023-05-20T01:51:36.003Z,484.00
2023-05-20T01:52:36.042Z,484.00
2023-05-20T01:53:36.284Z,485.00
2023-05-20T01:54:36.077Z,485.00
2023-05-20T01:55:36.167Z,485.00
2023-05-20T01:56:37.142Z,484.00
2023-05-20T01:57:36.247Z,484.00
2023-05-20T01:58:36.453Z,487.00
2023-05-20T01:59:36.418Z,487.00
2023-05-20T02:00:36.359Z,487.00
2023-05-20T02:01:37.461Z,486.00
2023-05-20T02:02:36.685Z,487.00
2023-05-20T02:03:37.482Z,489.00
2023-05-20T02:04:37.677Z,490.00
2023-05-20T02:05:38.231Z,490.00
2023-05-20T02:06:36.642Z,489.00
2023-05-20T02:07:36.939Z,490.00
2023-05-20T02:08:36.717Z,491.00
2023-05-20T02:09:37.853Z,489.00
2023-05-20T02:10:37.783Z,491.00
2023-05-20T02:11:36.981Z,490.00
2023-05-20T02:12:37.966Z,489.00
2023-05-20T02:13:38.118Z,489.00
2023-05-20T02:14:38.005Z,489.00
2023-05-20T02:15:37.068Z,489.00
2023-05-20T02:16:37.189Z,488.00
2023-05-20T02:17:38.240Z,485.00
2023-05-20T02:18:38.325Z,486.00
2023-05-20T02:19:37.351Z,486.00
2023-05-20T02:20:38.368Z,489.00
2023-05-20T02:21:37.339Z,490.00
2023-05-20T02:22:37.555Z,490.00
2023-05-20T02:23:37.419Z,488.00
2023-05-20T02:24:37.446Z,487.00
2023-05-20T02:25:37.474Z,487.00
2023-05-20T02:26:38.548Z,486.00
2023-05-20T02:27:38.590Z,486.00
2023-05-20T02:28:38.610Z,486.00
2023-05-20T02:29:37.650Z,487.00
2023-05-20T02:30:38.765Z,488.00
2023-05-20T02:31:38.809Z,488.00
2023-05-20T02:32:38.886Z,488.00
2023-05-20T02:33:38.889Z,484.00
2023-05-20T02:34:38.907Z,485.00
2023-05-20T02:35:38.087Z,485.00
2023-05-20T02:36:38.008Z,482.00
2023-05-20T02:37:38.039Z,481.00
2023-05-20T02:38:38.114Z,482.00
2023-05-20T02:39:38.293Z,481.00
2023-05-20T02:40:39.157Z,482.00
2023-05-20T02:41:38.240Z,481.00
2023-05-20T02:42:39.225Z,486.00
2023-05-20T02:43:38.488Z,483.00
2023-05-20T02:44:39.401Z,483.00
2023-05-20T02:45:38.668Z,483.00
2023-05-20T02:46:38.477Z,484.00
2023-05-20T02:47:38.495Z,484.00
2023-05-20T02:48:39.511Z,486.00
2023-05-20T02:49:38.596Z,488.00
2023-05-20T02:50:38.577Z,490.00
2023-05-20T02:51:39.591Z,489.00
2023-05-20T02:52:38.626Z,488.00
2023-05-20T02:53:38.673Z,482.00
2023-05-20T02:54:38.699Z,481.00
2023-05-20T02:55:39.742Z,482.00
2023-05-20T02:56:39.749Z,480.00
2023-05-20T02:57:39.027Z,478.00
2023-05-20T02:58:39.879Z,477.00
2023-05-20T02:59:39.114Z,481.00
2023-05-20T03:00:40.045Z,483.00
2023-05-20T03:01:39.310Z,484.00
2023-05-20T03:02:40.303Z,485.00
2023-05-20T03:03:39.361Z,484.00
2023-05-20T03:04:39.231Z,482.00
2023-05-20T03:05:39.416Z,482.00
2023-05-20T03:06:39.231Z,483.00
2023-05-20T03:07:39.395Z,486.00
2023-05-20T03:08:39.277Z,485.00
2023-05-20T03:09:39.550Z,486.00
2023-05-20T03:10:40.518Z,485.00
2023-05-20T03:11:39.373Z,486.00
2023-05-20T03:12:39.429Z,486.00
2023-05-20T03:13:39.473Z,485.00
2023-05-20T03:14:39.595Z,487.00
2023-05-20T03:15:39.585Z,489.00
2023-05-20T03:16:39.596Z,492.00
2023-05-20T03:17:39.579Z,493.00
2023-05-20T03:18:39.778Z,492.00
2023-05-20T03:19:40.730Z,491.00
2023-05-20T03:20:39.649Z,492.00
2023-05-20T03:21:39.787Z,489.00
2023-05-20T03:22:40.755Z,486.00
2023-05-20T03:23:40.696Z,486.00
2023-05-20T03:24:39.722Z,484.00
2023-05-20T03:25:39.838Z,486.00
2023-05-20T03:26:40.025Z,487.00
2023-05-20T03:27:40.952Z,490.00
2023-05-20T03:28:41.025Z,490.00
2023-05-20T03:29:39.945Z,490.00
2023-05-20T03:30:40.270Z,489.00
2023-05-20T03:31:40.222Z,490.00
2023-05-20T03:32:41.024Z,492.00
2023-05-20T03:33:40.157Z,494.00
2023-05-20T03:34:40.094Z,491.00
2023-05-20T03:35:40.131Z,489.00
2023-05-20T03:36:41.170Z,486.00
2023-05-20T03:37:40.173Z,486.00
2023-05-20T03:38:40.243Z,486.00
2023-05-20T03:39:41.425Z,483.00
2023-05-20T03:40:40.473Z,483.00
2023-05-20T03:41:40.356Z,484.00
2023-05-20T03:42:40.597Z,484.00
2023-05-20T03:43:40.514Z,482.00
2023-05-20T03:44:40.488Z,484.00
2023-05-20T03:45:40.362Z,489.00
2023-05-20T03:46:41.662Z,490.00
2023-05-20T03:47:41.646Z,492.00
2023-05-20T03:48:41.426Z,492.00
2023-05-20T03:49:41.560Z,491.00
2023-05-20T03:50:40.664Z,489.00
2023-05-20T03:51:41.609Z,491.00
2023-05-20T03:52:40.651Z,490.00
2023-05-20T03:53:41.781Z,491.00
2023-05-20T03:54:40.873Z,491.00
2023-05-20T03:55:40.867Z,488.00
2023-05-20T03:56:40.718Z,489.00
2023-05-20T03:57:40.961Z,488.00
2023-05-20T03:58:41.811Z,489.00
2023-05-20T03:59:40.790Z,485.00
2023-05-20T04:00:40.797Z,486.00
2023-05-20T04:01:41.845Z,488.00
2023-05-20T04:02:40.975Z,486.00
2023-05-20T04:03:40.992Z,487.00
2023-05-20T04:04:41.862Z,487.00
2023-05-20T04:05:40.938Z,489.00
2023-05-20T04:06:40.941Z,489.00
2023-05-20T04:07:41.940Z,490.00
2023-05-20T04:08:40.955Z,491.00
2023-05-20T04:09:41.000Z,490.00
2023-05-20T04:10:41.303Z,490.00
2023-05-20T04:11:42.224Z,489.00
2023-05-20T04:12:42.213Z,489.00
2023-05-20T04:13:42.310Z,489.00
2023-05-20T04:14:41.246Z,489.00
2023-05-20T04:15:41.468Z,489.00
2023-05-20T04:16:42.220Z,491.00
2023-05-20T04:17:41.206Z,492.00
2023-05-20T04:18:42.232Z,492.00
2023-05-20T04:19:41.232Z,490.00
2023-05-20T04:20:41.262Z,491.00
2023-05-20T04:21:41.326Z,492.00
2023-05-20T04:22:42.317Z,492.00
2023-05-20T04:23:42.405Z,493.00
2023-05-20T04:24:41.428Z,492.00
2023-05-20T04:25:41.429Z,491.00
2023-05-20T04:26:42.480Z,488.00
2023-05-20T04:27:42.433Z,487.00
2023-05-20T04:28:42.589Z,488.00
2023-05-20T04:29:41.743Z,489.00
2023-05-20T04:30:41.511Z,489.00
2023-05-20T04:31:42.710Z,487.00
2023-05-20T04:32:42.746Z,489.00
2023-05-20T04:33:41.705Z,489.00
2023-05-20T04:34:42.825Z,490.00
2023-05-20T04:35:42.668Z,493.00
2023-05-20T04:36:41.745Z,493.00
2023-05-20T04:37:41.877Z,493.00
2023-05-20T04:38:41.943Z,491.00
2023-05-20T04:39:42.865Z,490.00
2023-05-20T04:40:42.837Z,491.00
2023-05-20T04:41:42.064Z,492.00
2023-05-20T04:42:41.889Z,492.00
2023-05-20T04:43:42.908Z,491.00
2023-05-20T04:44:42.966Z,493.00
2023-05-20T04:45:43.191Z,492.00
2023-05-20T04:46:43.132Z,493.00
2023-05-20T04:47:43.074Z,491.00
2023-05-20T04:48:43.075Z,492.00
2023-05-20T04:49:43.232Z,491.00
2023-05-20T04:50:42.169Z,492.00
2023-05-20T04:51:42.441Z,491.00
2023-05-20T04:52:42.387Z,492.00
2023-05-20T04:53:46.053Z,494.00
2023-05-20T04:54:43.355Z,495.00
2023-05-20T04:55:43.657Z,495.00
2023-05-20T04:56:43.387Z,496.00
2023-05-20T04:57:43.582Z,496.00
2023-05-20T04:58:42.487Z,495.00
2023-05-20T04:59:43.457Z,496.00
2023-05-20T05:00:43.394Z,495.00
2023-05-20T05:01:43.301Z,494.00
2023-05-20T05:02:42.458Z,495.00
2023-05-20T05:03:43.296Z,495.00
2023-05-20T05:04:43.269Z,493.00
2023-05-20T05:05:42.252Z,493.00
2023-05-20T05:06:42.445Z,493.00
2023-05-20T05:07:42.419Z,493.00
2023-05-20T05:08:42.202Z,493.00
2023-05-20T05:09:43.196Z,494.00
2023-05-20T05:10:42.205Z,496.00
2023-05-20T05:11:43.191Z,496.00
2023-05-20T05:12:42.200Z,497.00
2023-05-20T05:13:43.189Z,496.00
2023-05-20T05:14:43.190Z,498.00
2023-05-20T05:15:43.198Z,498.00
2023-05-20T05:16:42.141Z,496.00
2023-05-20T05:17:42.157Z,496.00
2023-05-20T05:18:42.313Z,498.00
2023-05-20T05:19:43.224Z,496.00
2023-05-20T05:20:42.252Z,496.00
2023-05-20T05:21:42.485Z,497.00
2023-05-20T05:22:43.300Z,497.00
2023-05-20T05:23:42.350Z,498.00
2023-05-20T05:24:43.487Z,499.00
2023-05-20T05:25:43.469Z,499.00
2023-05-20T05:26:43.506Z,500.00
2023-05-20T05:27:42.640Z,499.00
2023-05-20T05:28:42.659Z,498.00
2023-05-20T05:29:43.862Z,497.00
2023-05-20T05:30:43.773Z,498.00
2023-05-20T05:31:42.740Z,499.00
2023-05-20T05:32:43.008Z,500.00
2023-05-20T05:33:42.852Z,497.00
2023-05-20T05:34:43.859Z,495.00
2023-05-20T05:35:42.905Z,495.00
2023-05-20T05:36:42.987Z,493.00
2023-05-20T05:37:44.094Z,490.00
2023-05-20T05:38:43.127Z,489.00
2023-05-20T05:39:43.173Z,491.00
2023-05-20T05:40:44.255Z,493.00
2023-05-20T05:41:43.193Z,494.00
2023-05-20T05:42:43.280Z,492.00
2023-05-20T05:43:43.470Z,493.00
2023-05-20T05:44:43.480Z,492.00
2023-05-20T05:45:43.529Z,489.00
2023-05-20T05:46:44.455Z,488.00
2023-05-20T05:47:44.743Z,490.00
2023-05-20T05:48:43.741Z,492.00
2023-05-20T05:49:43.703Z,490.00
2023-05-20T05:50:43.678Z,492.00
2023-05-20T05:51:43.713Z,492.00
2023-05-20T05:52:43.851Z,496.00
2023-05-20T05:53:45.471Z,497.00
2023-05-20T05:54:45.000Z,496.00
2023-05-20T05:55:44.100Z,495.00
2023-05-20T05:56:44.900Z,496.00
2023-05-20T05:57:44.081Z,496.00
2023-05-20T05:58:45.243Z,498.00
2023-05-20T05:59:44.076Z,496.00
2023-05-20T06:00:44.414Z,494.00
2023-05-20T06:01:44.213Z,495.00
2023-05-20T06:02:44.260Z,492.00
2023-05-20T06:03:44.473Z,494.00
2023-05-20T06:04:45.313Z,493.00
2023-05-20T06:05:44.535Z,495.00
2023-05-20T06:06:44.370Z,495.00
2023-05-20T06:07:44.596Z,496.00
2023-05-20T06:08:44.573Z,495.00
2023-05-20T06:09:45.611Z,495.00
2023-05-20T06:10:44.521Z,491.00
2023-05-20T06:11:45.733Z,492.00
2023-05-20T06:12:45.531Z,492.00
2023-05-20T06:13:45.806Z,493.00
2023-05-20T06:14:45.886Z,494.00
2023-05-20T06:15:45.649Z,495.00
2023-05-20T06:16:45.794Z,494.00
2023-05-20T06:17:44.741Z,491.00
2023-05-20T06:18:45.975Z,489.00
2023-05-20T06:19:45.784Z,487.00
2023-05-20T06:20:46.128Z,486.00
2023-05-20T06:21:45.024Z,486.00
2023-05-20T06:22:45.844Z,485.00
2023-05-20T06:23:45.892Z,486.00
2023-05-20T06:24:45.108Z,488.00
2023-05-20T06:25:45.027Z,489.00
2023-05-20T06:26:44.976Z,490.00
2023-05-20T06:27:45.987Z,491.00
2023-05-20T06:28:46.265Z,493.00
2023-05-20T06:29:45.113Z,494.00
2023-05-20T06:30:45.263Z,494.00
2023-05-20T06:31:45.193Z,494.00
2023-05-20T06:32:46.192Z,497.00
2023-05-20T06:33:46.233Z,494.00
2023-05-20T06:34:46.190Z,493.00
2023-05-20T06:35:45.220Z,489.00
2023-05-20T06:36:46.279Z,488.00
2023-05-20T06:37:46.283Z,488.00
2023-05-20T06:38:45.299Z,490.00
2023-05-20T06:39:45.597Z,491.00
2023-05-20T06:40:46.676Z,491.00
2023-05-20T06:41:46.545Z,490.00
2023-05-20T06:42:46.384Z,489.00
2023-05-20T06:43:45.433Z,487.00
2023-05-20T06:44:46.511Z,488.00
2023-05-20T06:45:45.599Z,486.00
2023-05-20T06:46:45.810Z,483.00
2023-05-20T06:47:45.703Z,484.00
2023-05-20T06:48:45.666Z,486.00
2023-05-20T06:49:47.577Z,489.00
2023-05-20T06:50:45.671Z,489.00
2023-05-20T06:51:46.635Z,489.00
2023-05-20T06:52:45.658Z,488.00
2023-05-20T06:53:45.834Z,488.00
2023-05-20T06:54:45.762Z,487.00
2023-05-20T06:55:45.865Z,488.00
2023-05-20T06:56:45.658Z,490.00
2023-05-20T06:57:46.696Z,492.00
2023-05-20T06:58:46.895Z,492.00
2023-05-20T06:59:45.691Z,489.00
2023-05-20T07:00:45.859Z,488.00
2023-05-20T07:01:45.783Z,489.00
2023-05-20T07:02:46.787Z,492.00
2023-05-20T07:03:46.761Z,495.00
2023-05-20T07:04:45.754Z,492.00
2023-05-20T07:05:46.839Z,493.00
2023-05-20T07:06:46.784Z,493.00
2023-05-20T07:07:46.788Z,495.00
2023-05-20T07:08:45.844Z,495.00
2023-05-20T07:09:46.795Z,497.00
2023-05-20T07:10:46.907Z,494.00
2023-05-20T07:11:46.203Z,494.00
2023-05-20T07:12:45.932Z,493.00
2023-05-20T07:13:45.847Z,493.00
2023-05-20T07:14:45.892Z,489.00
2023-05-20T07:15:47.116Z,490.00
2023-05-20T07:16:45.899Z,489.00
2023-05-20T07:17:45.965Z,486.00
2023-05-20T07:18:47.122Z,486.00
2023-05-20T07:19:46.212Z,486.00
2023-05-20T07:20:47.129Z,486.00
2023-05-20T07:21:46.932Z,484.00
2023-05-20T07:22:45.951Z,483.00
2023-05-20T07:23:46.173Z,483.00
2023-05-20T07:24:45.961Z,485.00
2023-05-20T07:25:47.034Z,484.00
2023-05-20T07:26:46.141Z,485.00
2023-05-20T07:27:47.215Z,488.00
2023-05-20T07:28:47.058Z,490.00
2023-05-20T07:29:47.063Z,490.00
2023-05-20T07:30:47.087Z,490.00
2023-05-20T07:31:46.195Z,488.00
2023-05-20T07:32:46.440Z,487.00
2023-05-20T07:33:47.223Z,489.00
2023-05-20T07:34:46.244Z,488.00
2023-05-20T07:35:46.176Z,491.00
2023-05-20T07:36:46.248Z,492.00
2023-05-20T07:37:46.238Z,491.00
2023-05-20T07:38:56.866Z,491.00
2023-05-20T07:39:47.416Z,486.00
2023-05-20T07:40:46.265Z,485.00
2023-05-20T07:41:46.406Z,486.00
2023-05-20T07:42:46.227Z,486.00
2023-05-20T07:43:46.236Z,485.00
2023-05-20T07:44:47.207Z,486.00
2023-05-20T07:45:47.462Z,486.00
2023-05-20T07:46:46.463Z,486.00
2023-05-20T07:47:46.277Z,486.00
2023-05-20T07:48:46.177Z,485.00
2023-05-20T07:49:47.323Z,490.00
2023-05-20T07:50:46.177Z,493.00
2023-05-20T07:51:46.522Z,491.00
2023-05-20T07:52:56.152Z,492.00
2023-05-20T07:53:47.358Z,494.00
2023-05-20T07:54:46.352Z,494.00
2023-05-20T07:55:46.352Z,490.00
2023-05-20T07:56:47.403Z,491.00
2023-05-20T07:57:46.103Z,492.00
2023-05-20T07:58:47.123Z,488.00
2023-05-20T07:59:46.086Z,488.00
2023-05-20T08:00:46.140Z,488.00
2023-05-20T08:01:47.155Z,486.00
2023-05-20T08:02:46.433Z,484.00
2023-05-20T08:03:46.133Z,485.00
2023-05-20T08:04:47.052Z,488.00
2023-05-20T08:05:47.043Z,489.00
2023-05-20T08:06:46.066Z,491.00
2023-05-20T08:07:46.028Z,488.00
2023-05-20T08:08:47.015Z,489.00
2023-05-20T08:09:47.040Z,491.00
2023-05-20T08:10:47.040Z,490.00
2023-05-20T08:11:47.512Z,490.00
2023-05-20T08:12:45.990Z,490.00
2023-05-20T08:13:46.067Z,491.00
2023-05-20T08:14:45.983Z,493.00
2023-05-20T08:15:45.973Z,491.00
2023-05-20T08:16:47.115Z,489.00
2023-05-20T08:17:47.083Z,489.00
2023-05-20T08:18:47.070Z,488.00
2023-05-20T08:19:45.943Z,488.00
2023-05-20T08:20:47.032Z,489.00
2023-05-20T08:21:46.211Z,489.00
2023-05-20T08:22:47.017Z,488.00
2023-05-20T08:23:47.008Z,489.00
2023-05-20T08:24:46.932Z,489.00
2023-05-20T08:25:45.923Z,489.00
2023-05-20T08:26:46.963Z,486.00
2023-05-20T08:27:47.037Z,486.00
2023-05-20T08:28:45.905Z,486.00
2023-05-20T08:29:46.948Z,488.00
2023-05-20T08:30:47.063Z,487.00
2023-05-20T08:31:46.892Z,484.00
2023-05-20T08:32:46.889Z,486.00
2023-05-20T08:33:45.879Z,488.00
2023-05-20T08:34:46.250Z,485.00
2023-05-20T08:35:46.935Z,486.00
2023-05-20T08:36:46.904Z,486.00
2023-05-20T08:37:47.034Z,485.00
2023-05-20T08:40:19.868Z,512.00
2023-05-20T08:42:38.304Z,513.00
2023-05-20T08:43:38.344Z,506.00
2023-05-20T08:44:38.269Z,507.00
2023-05-20T08:45:39.226Z,505.00
2023-05-20T08:46:38.341Z,505.00
2023-05-20T08:47:38.650Z,505.00
2023-05-20T08:48:39.214Z,505.00
2023-05-20T08:49:38.208Z,507.00
2023-05-20T08:50:39.246Z,504.00
2023-05-20T08:51:38.237Z,504.00
2023-05-20T08:53:57.699Z,516.00
2023-05-20T08:54:58.553Z,508.00
2023-05-20T08:56:00.662Z,507.00
2023-05-20T08:56:58.553Z,508.00
2023-05-20T08:57:57.733Z,508.00
2023-05-20T08:58:57.778Z,507.00
2023-05-20T08:59:57.544Z,505.00
2023-05-20T09:00:58.597Z,502.00
2023-05-20T09:01:57.784Z,500.00
2023-05-20T09:03:00.882Z,498.00
2023-05-20T09:03:57.517Z,498.00
2023-05-20T09:04:58.558Z,498.00
2023-05-20T09:05:57.536Z,498.00
2023-05-20T09:06:57.586Z,500.00
2023-05-20T09:07:57.481Z,500.00
2023-05-20T09:08:57.547Z,503.00
2023-05-20T09:09:57.658Z,503.00
2023-05-20T09:10:58.524Z,503.00
2023-05-20T09:11:57.578Z,505.00
2023-05-20T09:12:57.467Z,506.00
2023-05-20T09:13:57.452Z,506.00
2023-05-20T09:14:57.695Z,504.00
2023-05-20T09:15:57.549Z,503.00
2023-05-20T09:16:57.489Z,506.00
2023-05-20T09:17:57.672Z,505.00
2023-05-20T09:18:57.797Z,505.00
2023-05-20T09:19:57.692Z,505.00
2023-05-20T09:20:57.384Z,505.00
2023-05-20T09:21:58.556Z,505.00
2023-05-20T09:22:58.373Z,503.00
2023-05-20T09:23:58.389Z,504.00
2023-05-20T09:24:57.389Z,501.00
2023-05-20T09:25:57.339Z,502.00
2023-05-20T09:26:57.349Z,500.00
2023-05-20T09:27:57.563Z,502.00
2023-05-20T09:28:57.488Z,505.00
2023-05-20T09:29:58.354Z,506.00
2023-05-20T09:30:58.633Z,506.00
2023-05-20T09:31:58.684Z,503.00
2023-05-20T09:32:58.774Z,503.00
2023-05-20T09:33:57.481Z,504.00
2023-05-20T09:34:57.575Z,505.00
2023-05-20T09:35:57.821Z,503.00
2023-05-20T09:36:58.626Z,501.00
2023-05-20T09:37:57.666Z,499.00
2023-05-20T09:38:58.901Z,496.00
2023-05-20T09:39:57.785Z,497.00
2023-05-20T09:40:58.812Z,495.00
2023-05-20T09:41:58.881Z,497.00
2023-05-20T09:42:57.900Z,497.00
2023-05-20T09:43:59.042Z,497.00
2023-05-20T09:44:59.044Z,496.00
2023-05-20T09:45:59.093Z,495.00
2023-05-20T09:46:58.064Z,494.00
2023-05-20T09:47:59.271Z,492.00
2023-05-20T09:48:59.159Z,496.00
2023-05-20T09:49:59.406Z,496.00
2023-05-20T09:50:58.265Z,497.00
2023-05-20T09:51:59.296Z,497.00
2023-05-20T09:52:59.325Z,498.00
2023-05-20T09:53:58.382Z,498.00
2023-05-20T09:54:59.440Z,497.00
2023-05-20T09:55:59.569Z,498.00
2023-05-20T09:56:58.772Z,498.00
2023-05-20T09:57:59.735Z,498.00
2023-05-20T09:58:59.615Z,500.00
2023-05-20T09:59:58.798Z,499.00
2023-05-20T10:00:59.736Z,498.00
2023-05-20T10:02:00.076Z,498.00
2023-05-20T10:03:00.286Z,498.00
2023-05-20T10:03:59.928Z,499.00
2023-05-20T10:04:58.907Z,500.00
2023-05-20T10:05:59.195Z,496.00
2023-05-20T10:07:00.166Z,496.00
2023-05-20T10:07:59.224Z,496.00
2023-05-20T10:08:59.364Z,498.00
2023-05-20T10:09:59.318Z,501.00
2023-05-20T10:11:00.466Z,505.00
2023-05-20T10:12:00.240Z,501.00
2023-05-20T10:12:59.468Z,500.00
2023-05-20T10:13:59.352Z,499.00
2023-05-20T10:15:00.629Z,498.00
2023-05-20T10:15:59.531Z,497.00
2023-05-20T10:16:59.751Z,500.00
2023-05-20T10:18:00.773Z,496.00
2023-05-20T10:19:00.811Z,495.00
2023-05-20T10:20:00.637Z,493.00
2023-05-20T10:20:59.696Z,491.00
2023-05-20T10:21:59.867Z,490.00
2023-05-20T10:22:59.972Z,490.00
2023-05-20T10:24:01.525Z,489.00
2023-05-20T10:25:00.860Z,490.00
2023-05-20T10:26:00.818Z,491.00
2023-05-20T10:26:59.776Z,491.00
2023-05-20T10:27:59.776Z,497.00
2023-05-20T10:28:59.792Z,494.00
2023-05-20T10:29:59.775Z,496.00
2023-05-20T10:30:59.781Z,494.00
2023-05-20T10:32:00.817Z,496.00
2023-05-20T10:32:59.845Z,498.00
2023-05-20T10:33:59.750Z,497.00
2023-05-20T10:34:59.727Z,496.00
2023-05-20T10:36:00.768Z,493.00
2023-05-20T10:37:00.732Z,492.00
2023-05-20T10:37:59.774Z,493.00
2023-05-20T10:38:59.740Z,495.00
2023-05-20T10:39:59.698Z,499.00
2023-05-20T10:41:00.702Z,501.00
2023-05-20T10:42:00.686Z,503.00
2023-05-20T10:43:00.681Z,502.00
2023-05-20T10:44:00.688Z,503.00
2023-05-20T10:44:59.740Z,500.00
2023-05-20T10:46:01.899Z,501.00
2023-05-20T10:48:00.797Z,501.00
2023-05-20T10:49:00.754Z,501.00
2023-05-20T10:50:00.631Z,498.00
2023-05-20T10:50:59.611Z,496.00
2023-05-20T10:52:00.636Z,499.00
2023-05-20T10:53:00.700Z,497.00
2023-05-20T10:53:59.701Z,498.00
2023-05-20T10:55:00.690Z,498.00
2023-05-20T10:55:59.607Z,499.00
2023-05-20T10:57:00.872Z,501.00
2023-05-20T10:57:59.749Z,500.00
2023-05-20T10:59:00.581Z,501.00
2023-05-20T10:59:59.590Z,500.00
2023-05-20T11:00:59.604Z,502.00
2023-05-20T11:01:59.571Z,500.00
2023-05-20T11:03:00.671Z,503.00
2023-05-20T11:04:00.638Z,504.00
2023-05-20T11:04:59.597Z,504.00
2023-05-20T11:05:59.565Z,502.00
2023-05-20T11:06:59.682Z,502.00
2023-05-20T11:08:00.690Z,502.00
2023-05-20T11:09:00.664Z,502.00
2023-05-20T11:09:59.540Z,501.00
2023-05-20T11:10:59.670Z,501.00
2023-05-20T11:12:00.601Z,502.00
2023-05-20T11:12:59.802Z,500.00
2023-05-20T11:14:00.535Z,502.00
2023-05-20T11:14:59.494Z,502.00
2023-05-20T11:15:59.506Z,503.00
2023-05-20T11:16:59.524Z,505.00
2023-05-20T11:17:59.745Z,506.00
2023-05-20T11:19:00.645Z,506.00
2023-05-20T11:19:59.501Z,503.00
2023-05-20T11:20:59.647Z,501.00
2023-05-20T11:22:00.591Z,499.00
2023-05-20T11:23:00.670Z,499.00
2023-05-20T11:23:59.645Z,496.00
2023-05-20T11:24:59.668Z,498.00
2023-05-20T11:26:00.708Z,499.00
2023-05-20T11:27:00.732Z,498.00
2023-05-20T11:27:59.930Z,494.00
2023-05-20T11:29:01.272Z,495.00
2023-05-20T11:30:00.899Z,496.00
2023-05-20T11:31:00.883Z,498.00
2023-05-20T11:32:00.922Z,499.00
2023-05-20T11:33:01.229Z,498.00
2023-05-20T11:33:59.998Z,498.00
2023-05-20T11:35:00.153Z,498.00
2023-05-20T11:36:01.255Z,501.00
2023-05-20T11:37:01.087Z,498.00
2023-05-20T11:38:01.154Z,496.00
2023-05-20T11:39:01.285Z,496.00
2023-05-20T11:40:01.373Z,497.00
2023-05-20T11:41:01.327Z,499.00
2023-05-20T11:42:00.257Z,500.00
2023-05-20T11:43:01.276Z,500.00
2023-05-20T11:44:01.369Z,498.00
2023-05-20T11:45:01.442Z,498.00
2023-05-20T11:46:01.498Z,497.00
2023-05-20T11:47:01.678Z,498.00
2023-05-20T11:48:00.480Z,501.00
2023-05-20T11:49:00.309Z,500.00
2023-05-20T11:50:01.589Z,499.00
2023-05-20T11:51:02.285Z,501.00
2023-05-20T11:52:00.574Z,500.00
2023-05-20T11:53:01.406Z,500.00
2023-05-20T11:54:00.385Z,498.00
2023-05-20T11:55:00.464Z,500.00
2023-05-20T11:56:00.454Z,500.00
2023-05-20T11:57:00.499Z,499.00
2023-05-20T11:58:01.709Z,501.00
2023-05-20T11:59:01.517Z,499.00
2023-05-20T12:00:01.546Z,500.00
2023-05-20T12:01:13.478Z,503.00
2023-05-20T12:02:31.435Z,507.00
2023-05-20T12:03:31.457Z,503.00
2023-05-20T12:04:31.475Z,506.00
2023-05-20T12:05:32.321Z,504.00
2023-05-20T12:06:32.569Z,506.00
2023-05-20T12:07:32.345Z,501.00
2023-05-20T12:08:31.361Z,498.00
2023-05-20T12:09:31.500Z,498.00
2023-05-20T12:10:31.319Z,496.00
2023-05-20T12:11:32.353Z,494.00
2023-05-20T12:12:31.433Z,497.00
2023-05-20T12:13:34.974Z,497.00
2023-05-20T12:14:31.432Z,496.00
2023-05-20T12:15:31.506Z,494.00
2023-05-20T12:16:31.357Z,492.00
2023-05-20T12:17:32.298Z,493.00
2023-05-20T12:18:32.256Z,496.00
2023-05-20T12:19:33.666Z,494.00
2023-05-20T12:20:32.433Z,493.00
2023-05-20T12:21:32.266Z,493.00
2023-05-20T12:22:32.232Z,494.00
2023-05-20T12:23:31.203Z,493.00
2023-05-20T12:24:31.234Z,491.00
2023-05-20T12:25:32.194Z,490.00
2023-05-20T12:26:31.176Z,490.00
2023-05-20T12:27:32.193Z,488.00
2023-05-20T12:28:31.198Z,488.00
2023-05-20T12:29:31.156Z,486.00
2023-05-20T12:30:31.207Z,480.00
2023-05-20T12:31:34.639Z,479.00
2023-05-20T12:32:32.051Z,482.00
2023-05-20T12:33:32.160Z,482.00
2023-05-20T12:34:32.349Z,485.00